イエローナイフ の空港の天気 - METARとTAF

イエローナイフ空港 ( CYZF / YZF ) - カナダ ノースウエスト準州イエローナイフ
飛行場実況気象(Metar)
観測時間11/27 00:00 MST (11/27 07:00 UTC)
風向・風速北 3m/s
視程10km以上
天気現象弱い雪
全天の8割程度の雲 雲底高度 1070m
全天を覆う雲 雲底高度 1950m
気温-11℃
湿度85%
気圧1010.7hPa
METARCYZF 270700Z 35005KT 10SM -SN BKN035 OVC064 M11/M13 A2978 RMK SC6SC2 SLP107
過去の天気等 Google飛行場航空写真 Wunderground天気予報

過去48時間のMETAR

飛行場予報(TAF)
発表時間: 11/26 22:40 MST (11/27 05:40 UTC)
予報対象時間: 26日23時 MST ~ 27日23時 MST
風向・風速北北東 4m/s
視程10km以上
天気現象弱い雪
全天の4割程度の雲 雲底高度 760m
全天を覆う雲 雲底高度 1220m
26日23時 MST ~ 27日7時 MST に一時的に
全天を覆う雲 雲底高度 610m
27日7時 MST から
風向・風速北 4m/s
視程10km以上
天気現象弱い雪
全天の4割程度の雲 雲底高度 460m
全天を覆う雲 雲底高度 760m
27日7時 MST ~ 27日11時 MST に一時的に
視程3220m
天気現象弱い雪
全天を覆う雲 雲底高度 460m
27日11時 MST から
風向・風速北 6m/s 瞬間風速 11m/s
視程10km以上
全天の4割程度の雲 雲底高度 370m
全天を覆う雲 雲底高度 910m
27日11時 MST ~ 27日17時 MST に一時的に
視程4830m
天気現象弱い雪
全天を覆う雲 雲底高度 370m
27日17時 MST から
風向・風速北 6m/s
視程8050m
天気現象弱い雪 もや
全天の8割程度の雲 雲底高度 240m
全天を覆う雲 雲底高度 610m
TAF CYZF 270540Z 2706/2806 03007KT P6SM -SN SCT025 OVC040
TEMPO 2706/2714 OVC020
FM271400 36008KT P6SM -SN SCT015 OVC025
TEMPO 2714/2718 2SM -SN OVC015
FM271800 36012G22KT P6SM SCT012 OVC030
TEMPO 2718/2724 3SM -SN OVC012
FM280000 36012KT 5SM -SN BR BKN008 OVC020 RMK NXT FCST BY 271200Z